Time;durP1;ratioP1;P1;durP2;ratioP2;P2;SDS_P1;SDS_P2;PMS_P1;PMS_P2;Temp;Humidity;BMP_temperature;BMP_pressure;BME280_temperature;BME280_humidity;BME280_pressure;Samples;Min_cycle;Max_cycle;Signal;HPM_P1;HPM_P2
2023/01/17 05:00:40;;;;;;;1.85;0.40;;;4.30;99.90;;;;;;5779984;23;20210;-69
2023/01/17 05:03:07;;;;;;;1.27;1.27;;;4.30;99.90;;;;;;4904704;29;20583;-67
2023/01/17 05:05:33;;;;;;;0.82;0.82;;;4.30;99.90;;;;;;4911339;29;20203;-67
2023/01/17 05:08:00;;;;;;;0.73;0.73;;;4.30;99.90;;;;;;4915608;29;20211;-66
2023/01/17 05:10:27;;;;;;;1.55;1.45;;;4.30;99.90;;;;;;4915517;29;20219;-68
2023/01/17 05:12:54;;;;;;;0.75;0.75;;;4.30;99.90;;;;;;4897060;29;20208;-67
2023/01/17 05:15:22;;;;;;;0.77;0.73;;;4.30;99.90;;;;;;4896730;29;20223;-67
2023/01/17 05:17:51;;;;;;;0.28;0.28;;;4.40;99.90;;;;;;4909950;29;20291;-68
2023/01/17 05:20:18;;;;;;;0.35;0.35;;;4.40;99.90;;;;;;4915298;29;20318;-68
2023/01/17 05:22:46;;;;;;;0.52;0.52;;;4.40;99.90;;;;;;4915061;29;20214;-67
2023/01/17 05:25:13;;;;;;;2.40;0.93;;;4.40;99.90;;;;;;4914501;29;20266;-66
2023/01/17 05:27:39;;;;;;;0.50;0.50;;;4.30;99.90;;;;;;4914466;29;20207;-68
2023/01/17 05:30:07;;;;;;;0.73;0.73;;;4.30;99.90;;;;;;4929093;23;20215;-67
2023/01/17 05:32:34;;;;;;;1.15;1.05;;;4.40;99.90;;;;;;4921926;29;20752;-67
2023/01/17 05:35:02;;;;;;;0.20;0.20;;;4.30;99.90;;;;;;4906786;29;20277;-68
2023/01/17 05:37:29;;;;;;;0.17;0.17;;;4.40;99.90;;;;;;4926845;29;20678;-67
2023/01/17 05:39:55;;;;;;;1.60;1.60;;;4.30;99.90;;;;;;4925756;29;20230;-66
2023/01/17 05:42:22;;;;;;;0.20;0.20;;;4.40;99.90;;;;;;4934620;29;20219;-66
2023/01/17 05:44:49;;;;;;;1.35;0.95;;;4.40;99.90;;;;;;4921650;29;20251;-66
2023/01/17 05:47:15;;;;;;;1.27;0.63;;;4.40;99.90;;;;;;4914744;29;20664;-66
2023/01/17 05:49:42;;;;;;;1.10;0.75;;;4.40;99.90;;;;;;4914215;29;20218;-67
2023/01/17 05:52:11;;;;;;;1.48;0.30;;;4.40;99.90;;;;;;4919482;29;20227;-67
2023/01/17 05:54:38;;;;;;;1.73;1.63;;;4.30;99.90;;;;;;4917613;29;20565;-69
2023/01/17 05:57:04;;;;;;;0.20;0.20;;;4.30;99.90;;;;;;4910530;29;20667;-67
2023/01/17 05:59:31;;;;;;;0.30;0.30;;;4.40;99.90;;;;;;4934130;29;20578;-68
2023/01/17 06:01:58;;;;;;;1.52;1.45;;;4.30;99.90;;;;;;4919481;29;20226;-68
2023/01/17 06:04:24;;;;;;;0.57;0.57;;;4.30;99.90;;;;;;4919257;29;20223;-67
2023/01/17 06:06:51;;;;;;;0.20;0.20;;;4.30;99.90;;;;;;4921783;29;20757;-68
2023/01/17 06:09:19;;;;;;;0.20;0.20;;;4.30;99.90;;;;;;4915005;29;20207;-67
2023/01/17 06:11:46;;;;;;;1.02;0.88;;;4.30;99.90;;;;;;4913339;29;20652;-67
2023/01/17 06:14:13;;;;;;;0.10;0.10;;;4.30;99.90;;;;;;4921566;29;20212;-67
2023/01/17 06:16:39;;;;;;;1.00;0.30;;;4.30;99.90;;;;;;4914097;29;20207;-68
2023/01/17 06:19:08;;;;;;;0.20;0.20;;;4.30;99.90;;;;;;4913447;29;20630;-68
2023/01/17 06:21:34;;;;;;;0.82;0.82;;;4.30;99.90;;;;;;4913691;29;20233;-68
2023/01/17 06:24:01;;;;;;;0.30;0.30;;;4.30;99.90;;;;;;4924597;29;20211;-67
2023/01/17 06:26:29;;;;;;;0.30;0.30;;;4.30;99.90;;;;;;4933515;29;20698;-69
2023/01/17 06:28:56;;;;;;;0.55;0.55;;;4.20;99.90;;;;;;4920231;29;20214;-68
2023/01/17 06:31:23;;;;;;;0.63;0.63;;;4.20;99.90;;;;;;4913148;29;20691;-68
2023/01/17 06:33:49;;;;;;;0.45;0.45;;;4.20;99.90;;;;;;4913917;29;20214;-68
2023/01/17 06:36:16;;;;;;;0.50;0.50;;;4.20;99.90;;;;;;4920988;29;20211;-68
2023/01/17 06:38:43;;;;;;;1.33;1.30;;;4.20;99.90;;;;;;4914310;29;20233;-67
2023/01/17 06:41:09;;;;;;;0.30;0.30;;;4.10;99.90;;;;;;4912994;29;20235;-68
2023/01/17 06:43:37;;;;;;;0.20;0.20;;;4.10;99.90;;;;;;4922127;29;20234;-68
2023/01/17 06:46:04;;;;;;;0.10;0.10;;;4.10;99.90;;;;;;4917907;29;20215;-67
2023/01/17 06:48:31;;;;;;;0.20;0.20;;;4.10;99.90;;;;;;4920524;29;20202;-68
2023/01/17 06:50:58;;;;;;;0.20;0.20;;;4.10;99.90;;;;;;4928992;29;20563;-67
2023/01/17 06:53:25;;;;;;;0.40;0.40;;;4.00;99.90;;;;;;4922041;29;20199;-68
2023/01/17 06:55:54;;;;;;;0.10;0.10;;;4.00;99.90;;;;;;4918520;29;20214;-68
2023/01/17 06:58:21;;;;;;;0.20;0.20;;;4.00;99.90;;;;;;4914092;29;20549;-68
2023/01/17 07:00:49;;;;;;;0.10;0.10;;;4.00;99.90;;;;;;4909373;29;20234;-68
2023/01/17 07:03:19;;;;;;;0.20;0.20;;;3.90;99.90;;;;;;4913247;29;20214;-69
2023/01/17 07:05:46;;;;;;;0.55;0.55;;;3.90;99.90;;;;;;4925146;29;20204;-68
2023/01/17 07:08:15;;;;;;;0.63;0.63;;;3.90;99.90;;;;;;4914562;29;20225;-68
2023/01/17 07:10:43;;;;;;;0.10;0.10;;;3.80;99.90;;;;;;4914062;29;20708;-68
2023/01/17 07:13:10;;;;;;;0.10;0.10;;;3.80;99.90;;;;;;4917132;29;20672;-68
2023/01/17 07:15:36;;;;;;;0.10;0.10;;;3.80;99.90;;;;;;4914550;29;20257;-67
2023/01/17 07:18:06;;;;;;;0.10;0.10;;;3.80;99.90;;;;;;4919536;29;20211;-68
2023/01/17 07:20:33;;;;;;;0.10;0.10;;;3.80;99.90;;;;;;4912887;29;20246;-68
2023/01/17 07:22:59;;;;;;;4.20;1.20;;;3.80;99.90;;;;;;4912631;29;20221;-68
2023/01/17 07:25:26;;;;;;;6.45;1.30;;;3.90;99.90;;;;;;4924539;29;20660;-67
2023/01/17 07:27:56;;;;;;;1.52;0.32;;;4.00;99.90;;;;;;4925287;29;20270;-67
2023/01/17 07:30:23;;;;;;;0.10;0.10;;;3.90;99.90;;;;;;4928855;29;20225;-68
2023/01/17 07:32:52;;;;;;;0.10;0.10;;;3.90;99.90;;;;;;4918541;29;20211;-68
2023/01/17 07:35:20;;;;;;;6.47;1.55;;;3.80;99.90;;;;;;4920724;29;20210;-68
2023/01/17 07:37:48;;;;;;;0.60;0.52;;;3.80;99.90;;;;;;4916387;29;20218;-68
2023/01/17 07:40:16;;;;;;;0.50;0.50;;;3.80;99.90;;;;;;4912094;29;20231;-68
2023/01/17 07:42:43;;;;;;;0.90;0.90;;;3.80;99.90;;;;;;4918238;29;20513;-68
2023/01/17 07:45:11;;;;;;;0.30;0.30;;;3.80;99.90;;;;;;4924882;29;20202;-68
2023/01/17 07:47:38;;;;;;;0.25;0.25;;;3.70;99.90;;;;;;4923765;29;20210;-68
2023/01/17 07:50:06;;;;;;;0.20;0.20;;;3.70;99.90;;;;;;4921155;29;20209;-68
2023/01/17 07:52:34;;;;;;;0.40;0.40;;;3.70;99.90;;;;;;4915364;29;20667;-67
2023/01/17 07:55:00;;;;;;;1.60;1.50;;;3.70;99.90;;;;;;4909274;29;20211;-67
2023/01/17 07:57:27;;;;;;;0.50;0.50;;;3.70;99.90;;;;;;4920618;29;20219;-67
2023/01/17 07:59:54;;;;;;;0.40;0.40;;;3.70;99.90;;;;;;4912083;29;20241;-67
2023/01/17 08:02:22;;;;;;;0.77;0.77;;;3.80;99.90;;;;;;4915153;29;20580;-68
2023/01/17 08:04:49;;;;;;;1.38;0.40;;;3.80;99.90;;;;;;4916803;29;20203;-68
2023/01/17 08:07:16;;;;;;;0.30;0.30;;;3.80;99.90;;;;;;4928005;29;20207;-67
2023/01/17 08:09:48;;;;;;;0.25;0.25;;;3.80;99.90;;;;;;4912930;29;20203;-67
2023/01/17 08:12:15;;;;;;;0.10;0.10;;;3.80;99.90;;;;;;4912633;29;20228;-68
2023/01/17 08:14:42;;;;;;;2.50;0.45;;;3.90;99.90;;;;;;4913687;29;20211;-67
2023/01/17 08:17:12;;;;;;;0.22;0.22;;;3.90;99.90;;;;;;4913376;29;20229;-69
2023/01/17 08:19:38;;;;;;;1.70;1.58;;;3.90;99.90;;;;;;4910626;29;20715;-69
2023/01/17 08:22:05;;;;;;;0.20;0.20;;;3.90;99.90;;;;;;4911967;29;20595;-68
2023/01/17 08:24:32;;;;;;;1.05;1.05;;;3.80;99.90;;;;;;4914928;29;20217;-66
2023/01/17 08:27:00;;;;;;;0.20;0.20;;;3.80;99.90;;;;;;4911571;29;20214;-68
2023/01/17 08:29:28;;;;;;;0.57;0.57;;;3.80;99.90;;;;;;4927191;29;20203;-68
2023/01/17 08:31:54;;;;;;;0.30;0.30;;;3.80;99.90;;;;;;4916071;29;20290;-67
2023/01/17 08:34:21;;;;;;;0.30;0.30;;;3.70;99.90;;;;;;4925396;29;20217;-67
2023/01/17 08:36:48;;;;;;;0.52;0.52;;;3.70;99.90;;;;;;4918195;29;20232;-67
2023/01/17 08:39:15;;;;;;;0.20;0.20;;;3.60;99.90;;;;;;4921626;29;20210;-66
2023/01/17 08:41:41;;;;;;;0.20;0.20;;;3.70;99.90;;;;;;4925896;29;20253;-67
2023/01/17 08:44:10;;;;;;;0.30;0.30;;;3.60;99.90;;;;;;4911186;29;20211;-67
2023/01/17 08:46:37;;;;;;;0.40;0.30;;;3.60;99.90;;;;;;4914206;29;20562;-66
2023/01/17 08:49:04;;;;;;;0.10;0.10;;;3.70;99.90;;;;;;4913704;29;20608;-67
2023/01/17 08:51:32;;;;;;;0.77;0.77;;;3.70;99.90;;;;;;4917147;29;20230;-67
2023/01/17 08:53:59;;;;;;;0.10;0.10;;;3.70;99.90;;;;;;4922887;29;20208;-67
2023/01/17 08:56:26;;;;;;;0.20;0.20;;;3.70;99.90;;;;;;4914040;29;20210;-67
2023/01/17 08:58:53;;;;;;;0.50;0.50;;;3.70;99.90;;;;;;4922558;29;20238;-68
2023/01/17 09:01:21;;;;;;;0.77;0.77;;;3.70;99.90;;;;;;4912485;29;20234;-68
2023/01/17 09:03:50;;;;;;;4.95;0.63;;;3.70;99.90;;;;;;4912381;29;20207;-68
2023/01/17 09:06:17;;;;;;;1.60;1.60;;;3.60;99.90;;;;;;4915714;29;20684;-68
2023/01/17 09:08:45;;;;;;;0.30;0.30;;;3.60;99.90;;;;;;4925293;29;20214;-68
2023/01/17 09:11:14;;;;;;;0.68;0.68;;;3.70;99.90;;;;;;4922024;29;20305;-68
2023/01/17 09:13:41;;;;;;;2.75;1.33;;;3.70;99.90;;;;;;4925717;29;20214;-68
2023/01/17 09:16:09;;;;;;;0.20;0.20;;;3.70;99.90;;;;;;4910464;29;20226;-68
2023/01/17 09:18:37;;;;;;;0.35;0.35;;;3.70;99.90;;;;;;4905626;29;20208;-68
2023/01/17 09:21:11;;;;;;;1.15;0.95;;;3.70;99.90;;;;;;4913473;29;20245;-67
2023/01/17 09:23:37;;;;;;;0.98;0.95;;;3.70;99.90;;;;;;4916539;29;20208;-68
2023/01/17 09:26:04;;;;;;;0.55;0.55;;;3.70;99.90;;;;;;4921929;29;20217;-68
2023/01/17 09:28:32;;;;;;;2.30;1.05;;;3.70;99.90;;;;;;4919680;29;20211;-67
2023/01/17 09:30:59;;;;;;;0.73;0.73;;;3.70;99.90;;;;;;4916671;29;20737;-67
2023/01/17 09:33:25;;;;;;;0.95;0.95;;;3.70;99.90;;;;;;4907030;29;20207;-67
2023/01/17 09:35:53;;;;;;;1.75;1.23;;;3.70;99.90;;;;;;4915667;29;20830;-67
2023/01/17 09:38:20;;;;;;;0.40;0.30;;;3.80;99.90;;;;;;4920510;29;20238;-67
2023/01/17 09:40:48;;;;;;;1.05;0.95;;;3.80;99.90;;;;;;4924413;29;20225;-67
2023/01/17 09:43:23;;;;;;;0.22;0.22;;;3.80;99.90;;;;;;4924757;29;20221;-67
2023/01/17 09:45:50;;;;;;;0.75;0.75;;;3.80;99.90;;;;;;4916066;29;20211;-67
2023/01/17 09:48:25;;;;;;;0.63;0.63;;;3.80;99.90;;;;;;4918458;29;20696;-68
2023/01/17 09:50:57;;;;;;;0.85;0.85;;;3.80;99.90;;;;;;4908525;29;20221;-67
2023/01/17 09:53:24;;;;;;;0.63;0.63;;;3.80;99.90;;;;;;4909166;29;20557;-67
2023/01/17 09:55:56;;;;;;;0.45;0.32;;;3.80;99.90;;;;;;4916797;29;20216;-67
2023/01/17 09:58:30;;;;;;;2.60;0.80;;;3.80;99.90;;;;;;4904144;29;20219;-67
2023/01/17 10:01:04;;;;;;;0.70;0.70;;;3.80;99.90;;;;;;4916185;29;20325;-66
2023/01/17 10:03:50;;;;;;;0.80;0.80;;;3.80;99.90;;;;;;4908576;29;20207;-68
2023/01/17 10:06:30;;;;;;;0.28;0.28;;;3.80;99.90;;;;;;4906774;29;20222;-66
2023/01/17 10:09:12;;;;;;;0.45;0.45;;;3.80;99.90;;;;;;4914116;29;20214;-67
2023/01/17 10:11:51;;;;;;;2.30;0.50;;;3.80;99.90;;;;;;4907392;29;20235;-66
2023/01/17 10:14:33;;;;;;;2.15;1.98;;;3.90;99.90;;;;;;4913901;29;20261;-67
2023/01/17 10:17:08;;;;;;;0.40;0.40;;;3.90;99.90;;;;;;4921108;29;20211;-67
2023/01/17 10:19:46;;;;;;;0.20;0.20;;;3.90;99.90;;;;;;4909966;29;20206;-66
2023/01/17 10:22:40;;;;;;;1.75;0.30;;;3.90;99.90;;;;;;4919968;29;20246;-67
2023/01/17 10:25:28;;;;;;;0.60;0.60;;;3.90;99.90;;;;;;4924614;29;20202;-67
2023/01/17 10:27:58;;;;;;;1.10;0.63;;;4.00;99.90;;;;;;4919231;29;20218;-66
2023/01/17 10:30:32;;;;;;;0.73;0.73;;;4.00;99.90;;;;;;4910052;29;20231;-66
2023/01/17 10:33:02;;;;;;;1.13;1.02;;;4.00;99.90;;;;;;4918752;29;20209;-67
2023/01/17 10:35:33;;;;;;;1.45;0.57;;;4.00;99.90;;;;;;4912902;29;20225;-68
2023/01/17 10:38:05;;;;;;;1.38;1.00;;;4.00;99.90;;;;;;4914260;29;20211;-68
2023/01/17 10:40:40;;;;;;;0.55;0.55;;;4.10;99.90;;;;;;4920721;29;20237;-68
2023/01/17 10:43:18;;;;;;;0.10;0.10;;;4.10;99.90;;;;;;4924516;29;20342;-69
2023/01/17 10:45:51;;;;;;;0.77;0.65;;;4.10;99.90;;;;;;4915957;29;20226;-68
2023/01/17 10:48:24;;;;;;;0.47;0.47;;;4.10;99.90;;;;;;4911633;29;20649;-68
2023/01/17 10:51:00;;;;;;;0.30;0.30;;;4.20;99.90;;;;;;4909169;29;20317;-69
2023/01/17 10:53:45;;;;;;;0.20;0.20;;;4.30;99.90;;;;;;4908484;29;20676;-67
2023/01/17 10:56:15;;;;;;;0.20;0.20;;;4.40;99.90;;;;;;4895588;29;20227;-68
2023/01/17 10:58:41;;;;;;;0.20;0.20;;;4.40;99.90;;;;;;4923141;29;20554;-66
2023/01/17 11:01:17;;;;;;;0.43;0.43;;;4.40;99.90;;;;;;4906154;29;20227;-66
2023/01/17 11:03:48;;;;;;;0.30;0.30;;;4.40;99.90;;;;;;4916158;29;20218;-66
2023/01/17 11:06:20;;;;;;;0.90;0.57;;;4.40;99.90;;;;;;4928252;29;20209;-67
2023/01/17 11:08:53;;;;;;;0.40;0.40;;;4.30;99.90;;;;;;4923095;29;20211;-69
2023/01/17 11:11:23;;;;;;;0.20;0.20;;;4.40;99.90;;;;;;4921006;29;20238;-67
2023/01/17 11:13:53;;;;;;;1.05;1.05;;;4.40;99.90;;;;;;4918258;29;20208;-67
2023/01/17 11:16:21;;;;;;;2.15;0.65;;;4.40;99.90;;;;;;4915997;29;20668;-67
2023/01/17 11:19:03;;;;;;;0.82;0.82;;;4.40;99.90;;;;;;4916377;29;20207;-67
2023/01/17 11:21:32;;;;;;;0.90;0.90;;;4.40;99.90;;;;;;4917866;29;20262;-68
2023/01/17 11:24:10;;;;;;;0.52;0.52;;;4.40;99.90;;;;;;4932348;29;20220;-68
2023/01/17 11:26:38;;;;;;;1.38;0.60;;;4.50;99.90;;;;;;4922657;29;20232;-66
2023/01/17 11:29:16;;;;;;;0.32;0.32;;;4.50;99.90;;;;;;4926033;29;20213;-67
2023/01/17 11:31:43;;;;;;;0.20;0.20;;;4.50;99.90;;;;;;4927298;29;20284;-68
2023/01/17 11:34:16;;;;;;;1.77;1.77;;;4.50;99.90;;;;;;4920234;29;20209;-68
2023/01/17 11:36:43;;;;;;;1.90;1.77;;;4.50;99.90;;;;;;4914732;29;20206;-68
2023/01/17 11:39:26;;;;;;;0.20;0.20;;;4.50;99.90;;;;;;4915044;29;20208;-68
2023/01/17 11:41:53;;;;;;;0.43;0.43;;;4.40;99.90;;;;;;4916778;29;20525;-67
2023/01/17 11:44:23;;;;;;;0.10;0.10;;;4.40;99.90;;;;;;4916088;29;20203;-68
2023/01/17 11:47:08;;;;;;;0.47;0.47;;;4.40;99.90;;;;;;4917191;29;20600;-69
2023/01/17 11:49:35;;;;;;;0.60;0.60;;;4.40;99.90;;;;;;4922230;29;20221;-67
2023/01/17 11:52:09;;;;;;;0.20;0.20;;;4.40;99.90;;;;;;4919397;29;20242;-67
2023/01/17 11:54:41;;;;;;;11.25;0.73;;;4.40;99.90;;;;;;4925354;29;20635;-66
2023/01/17 11:57:20;;;;;;;0.20;0.20;;;4.40;99.90;;;;;;4913591;29;20307;-66
2023/01/17 11:59:47;;;;;;;0.98;0.98;;;4.40;99.90;;;;;;4915805;29;20222;-67
2023/01/17 12:02:36;;;;;;;1.25;1.25;;;4.40;99.90;;;;;;4925066;29;20235;-67
2023/01/17 12:05:17;;;;;;;0.32;0.32;;;4.30;99.90;;;;;;4914389;29;20265;-67
2023/01/17 12:07:51;;;;;;;0.47;0.47;;;4.40;99.90;;;;;;4924954;29;20628;-67
2023/01/17 12:10:25;;;;;;;1.20;0.68;;;4.40;99.90;;;;;;4917109;29;20234;-67
2023/01/17 12:15:58;;;;;;;0.20;0.20;;;4.50;99.90;;;;;;4920558;29;20270;-66
2023/01/17 12:18:38;;;;;;;0.20;0.20;;;4.40;99.90;;;;;;4923093;29;20199;-66
2023/01/17 12:21:15;;;;;;;0.32;0.32;;;4.60;99.90;;;;;;4913149;29;20230;-67
2023/01/17 12:24:04;;;;;;;0.95;0.32;;;4.60;99.90;;;;;;4923820;29;20207;-67
2023/01/17 12:26:38;;;;;;;0.30;0.30;;;4.50;99.90;;;;;;4924642;29;20207;-69
2023/01/17 12:29:30;;;;;;;1.80;0.50;;;4.50;99.90;;;;;;4923875;29;20222;-67
2023/01/17 12:32:10;;;;;;;0.60;0.45;;;4.60;99.90;;;;;;4925778;29;20863;-66
2023/01/17 12:34:41;;;;;;;0.20;0.20;;;4.50;99.90;;;;;;4929289;29;20214;-67
2023/01/17 12:37:17;;;;;;;0.75;0.75;;;4.50;99.90;;;;;;4927884;29;20205;-67
2023/01/17 12:39:51;;;;;;;0.35;0.35;;;4.40;99.90;;;;;;4925283;29;20560;-67
2023/01/17 12:42:23;;;;;;;0.20;0.20;;;4.40;99.90;;;;;;4919951;29;20226;-68
2023/01/17 12:44:56;;;;;;;5.45;2.60;;;4.40;99.90;;;;;;4918003;29;20263;-68
2023/01/17 12:47:23;;;;;;;0.10;0.10;;;4.40;99.90;;;;;;4923375;29;20208;-67
2023/01/17 12:50:00;;;;;;;1.85;0.70;;;4.40;99.90;;;;;;4927300;29;20231;-68
2023/01/17 12:52:41;;;;;;;0.57;0.52;;;4.50;99.90;;;;;;4924041;29;20301;-67
2023/01/17 12:55:14;;;;;;;0.20;0.20;;;4.50;99.90;;;;;;4915708;29;20210;-67
2023/01/17 12:57:46;;;;;;;0.80;0.80;;;4.60;99.90;;;;;;4916296;29;20207;-67
2023/01/17 13:00:18;;;;;;;0.73;0.73;;;4.70;99.90;;;;;;4916310;29;20207;-67
2023/01/17 13:02:52;;;;;;;0.73;0.40;;;4.70;99.90;;;;;;4924451;29;20230;-67
2023/01/17 13:05:23;;;;;;;0.20;0.20;;;4.80;99.90;;;;;;4920046;29;20217;-67
2023/01/17 13:07:56;;;;;;;3.22;1.05;;;4.70;99.90;;;;;;4924968;29;20281;-69
2023/01/17 13:10:31;;;;;;;4.13;2.08;;;4.70;99.90;;;;;;4915992;29;20246;-68
2023/01/17 13:13:09;;;;;;;29.60;2.08;;;4.70;99.90;;;;;;4915258;29;20687;-69
2023/01/17 13:15:39;;;;;;;1.60;1.50;;;4.80;99.90;;;;;;4930527;29;20221;-68
2023/01/17 13:18:13;;;;;;;0.30;0.30;;;4.80;99.90;;;;;;4918438;29;20221;-68
2023/01/17 13:21:04;;;;;;;0.47;0.45;;;4.80;99.90;;;;;;4926999;29;20236;-68
2023/01/17 13:23:44;;;;;;;1.83;1.67;;;4.80;99.90;;;;;;4910827;29;20214;-68
2023/01/17 13:26:19;;;;;;;19.60;0.90;;;4.70;99.90;;;;;;4922130;29;20207;-68
2023/01/17 13:28:56;;;;;;;0.30;0.30;;;4.60;99.90;;;;;;4919072;29;20309;-67
2023/01/17 13:31:44;;;;;;;0.20;0.20;;;4.60;99.90;;;;;;4907770;29;20344;-68
2023/01/17 13:34:38;;;;;;;0.20;0.20;;;4.50;99.90;;;;;;4908302;29;20214;-68
2023/01/17 13:37:34;;;;;;;0.47;0.47;;;4.50;99.90;;;;;;4922970;29;20215;-68
2023/01/17 13:40:26;;;;;;;0.38;0.38;;;4.50;99.90;;;;;;4925016;29;20206;-68
2023/01/17 13:42:56;;;;;;;0.20;0.20;;;4.50;99.90;;;;;;4915196;29;20252;-68
2023/01/17 13:45:27;;;;;;;0.45;0.45;;;4.50;99.90;;;;;;4919632;29;20207;-67
2023/01/17 13:48:25;;;;;;;0.68;0.68;;;4.50;99.90;;;;;;4917256;29;20233;-67
2023/01/17 13:50:54;;;;;;;0.22;0.22;;;4.50;99.90;;;;;;4912557;29;20227;-68
2023/01/17 13:53:48;;;;;;;0.20;0.20;;;4.40;99.90;;;;;;4913817;29;20230;-67
2023/01/17 13:56:24;;;;;;;0.50;0.50;;;4.40;99.90;;;;;;4917739;29;20580;-67
2023/01/17 13:59:03;;;;;;;0.73;0.73;;;4.50;99.90;;;;;;4913963;29;20213;-67
2023/01/17 14:01:52;;;;;;;0.20;0.20;;;4.60;99.90;;;;;;4925488;29;20227;-67
2023/01/17 14:04:19;;;;;;;0.20;0.20;;;4.60;99.90;;;;;;4897551;29;20218;-67
2023/01/17 14:06:48;;;;;;;0.60;0.60;;;4.70;99.90;;;;;;4907317;29;20211;-67
2023/01/17 14:09:20;;;;;;;0.30;0.30;;;4.70;99.90;;;;;;4908963;29;20212;-67
2023/01/17 14:11:59;;;;;;;0.30;0.30;;;4.70;99.90;;;;;;4919080;29;20238;-67
2023/01/17 14:14:42;;;;;;;0.45;0.45;;;4.80;99.90;;;;;;4911682;29;20219;-67
2023/01/17 14:17:57;;;;;;;1.25;1.25;;;4.80;99.90;;;;;;4915514;29;20210;-67
2023/01/17 14:21:03;;;;;;;2.42;0.75;;;4.70;99.90;;;;;;4910207;29;20233;-68
2023/01/17 14:23:48;;;;;;;1.05;0.60;;;4.60;99.90;;;;;;4910159;29;20302;-68
2023/01/17 14:26:44;;;;;;;1.58;1.58;;;4.60;99.90;;;;;;4917588;29;20203;-68
2023/01/17 14:29:52;;;;;;;0.40;0.40;;;4.50;99.90;;;;;;4903236;29;20615;-67
2023/01/17 14:32:21;;;;;;;1.00;0.55;;;4.50;99.90;;;;;;4915562;29;20235;-68
2023/01/17 14:34:50;;;;;;;3.13;1.65;;;4.50;99.90;;;;;;4912359;29;20219;-68
2023/01/17 14:37:33;;;;;;;1.60;1.50;;;4.50;99.90;;;;;;4922200;29;20568;-67
2023/01/17 14:40:00;;;;;;;1.15;0.82;;;4.50;99.90;;;;;;4922148;29;20548;-67
2023/01/17 14:42:30;;;;;;;0.95;0.90;;;4.50;99.90;;;;;;4923909;29;20226;-67
2023/01/17 14:45:01;;;;;;;1.40;1.38;;;4.40;99.90;;;;;;4927747;29;20309;-68
2023/01/17 14:47:31;;;;;;;0.70;0.70;;;4.40;99.90;;;;;;4919740;29;20206;-68
2023/01/17 14:50:22;;;;;;;0.73;0.73;;;4.40;99.90;;;;;;4928548;29;20217;-67
2023/01/17 14:53:08;;;;;;;0.75;0.75;;;4.40;99.90;;;;;;4927478;29;20226;-68
2023/01/17 14:55:35;;;;;;;0.55;0.55;;;4.40;99.90;;;;;;4924904;29;20211;-67
2023/01/17 14:58:01;;;;;;;0.52;0.52;;;4.40;99.90;;;;;;4918423;29;20293;-66
2023/01/17 15:00:29;;;;;;;1.58;0.55;;;4.40;99.90;;;;;;4918794;29;20241;-68
2023/01/17 15:02:58;;;;;;;0.50;0.50;;;4.40;99.90;;;;;;4918228;29;20258;-69
2023/01/17 15:05:26;;;;;;;0.80;0.80;;;4.30;99.90;;;;;;4914969;29;20298;-67
2023/01/17 15:07:57;;;;;;;1.05;1.05;;;4.30;99.90;;;;;;4920632;29;20573;-68
2023/01/17 15:10:28;;;;;;;0.70;0.70;;;4.30;99.90;;;;;;4925148;29;20239;-67
2023/01/17 15:12:55;;;;;;;0.95;0.95;;;4.20;99.90;;;;;;4919573;29;20554;-66
2023/01/17 15:15:31;;;;;;;4.90;4.60;;;4.20;99.90;;;;;;4923323;29;21291;-67
2023/01/17 15:18:21;;;;;;;0.90;0.90;;;4.10;99.90;;;;;;4919736;29;20265;-68
2023/01/17 15:20:56;;;;;;;2.88;2.67;;;4.00;99.90;;;;;;4928377;29;20309;-67
2023/01/17 15:23:30;;;;;;;2.25;2.15;;;4.00;99.90;;;;;;4917398;29;20623;-67
2023/01/17 15:25:57;;;;;;;30.20;2.30;;;3.90;99.90;;;;;;4914919;29;20210;-68
2023/01/17 15:28:25;;;;;;;1.25;1.23;;;3.90;99.90;;;;;;4932977;29;20234;-68
2023/01/17 15:31:13;;;;;;;0.93;0.93;;;3.80;99.90;;;;;;4916855;29;20252;-69
2023/01/17 15:33:42;;;;;;;1.30;1.30;;;3.80;99.90;;;;;;4919497;29;20234;-69
2023/01/17 15:36:23;;;;;;;5.15;1.33;;;3.70;99.90;;;;;;4920149;29;20295;-67
2023/01/17 15:38:58;;;;;;;0.80;0.80;;;3.70;99.90;;;;;;4920577;29;20223;-68
2023/01/17 15:41:27;;;;;;;1.23;1.23;;;3.60;99.90;;;;;;4931523;29;20332;-68
2023/01/17 15:43:56;;;;;;;0.65;0.65;;;3.60;99.90;;;;;;4923597;29;20241;-70
2023/01/17 15:46:28;;;;;;;15.52;1.35;;;3.50;99.90;;;;;;4918967;29;20217;-68
2023/01/17 15:49:06;;;;;;;0.80;0.80;;;3.50;99.90;;;;;;4917485;29;20569;-68
2023/01/17 15:51:37;;;;;;;1.45;1.45;;;3.50;99.90;;;;;;4925383;29;20226;-67
2023/01/17 15:54:46;;;;;;;0.90;0.90;;;3.40;99.90;;;;;;4931159;29;20221;-67
2023/01/17 15:57:24;;;;;;;5.72;2.97;;;3.40;99.90;;;;;;4911624;29;20231;-67
2023/01/17 15:59:54;;;;;;;3.35;3.05;;;3.30;99.90;;;;;;4915136;29;20293;-68
2023/01/17 16:02:34;;;;;;;12.60;11.30;;;3.30;99.90;;;;;;4911262;29;20235;-67
2023/01/17 16:05:02;;;;;;;3.05;2.83;;;3.30;99.90;;;;;;4911919;29;21232;-68
2023/01/17 16:07:41;;;;;;;2.13;1.95;;;3.30;99.90;;;;;;4914966;29;20598;-71
2023/01/17 16:10:16;;;;;;;5.15;2.33;;;3.20;99.90;;;;;;4914374;29;20218;-67
2023/01/17 16:12:45;;;;;;;2.50;2.45;;;3.20;99.90;;;;;;4911479;29;20599;-68
2023/01/17 16:15:12;;;;;;;4.40;3.92;;;3.10;99.90;;;;;;4910667;29;20203;-67
2023/01/17 16:17:40;;;;;;;2.38;2.17;;;3.10;99.90;;;;;;4911027;29;20233;-66
2023/01/17 16:20:14;;;;;;;1.20;1.10;;;3.00;99.90;;;;;;4918057;29;20215;-68
2023/01/17 16:22:42;;;;;;;0.93;0.93;;;3.00;99.90;;;;;;4911877;29;20218;-68
2023/01/17 16:25:13;;;;;;;0.73;0.73;;;3.00;99.90;;;;;;4914755;29;20246;-69
2023/01/17 16:27:41;;;;;;;0.75;0.75;;;3.00;99.90;;;;;;4920755;29;20293;-66
2023/01/17 16:30:14;;;;;;;0.35;0.35;;;2.90;99.90;;;;;;4923796;29;20302;-69
2023/01/17 16:32:40;;;;;;;0.98;0.98;;;2.90;99.90;;;;;;4911201;29;20202;-66
2023/01/17 16:35:16;;;;;;;2.63;0.82;;;2.80;99.90;;;;;;4911442;29;20570;-68
2023/01/17 16:37:43;;;;;;;0.90;0.68;;;2.80;99.90;;;;;;4925617;29;20221;-67
2023/01/17 16:40:11;;;;;;;1.75;1.15;;;2.80;99.90;;;;;;4915950;29;20230;-67
2023/01/17 16:42:38;;;;;;;5.60;1.75;;;2.70;99.90;;;;;;4923620;29;20238;-67
2023/01/17 16:45:05;;;;;;;1.35;1.35;;;2.70;99.90;;;;;;4928555;29;20207;-67
2023/01/17 16:47:33;;;;;;;3.22;2.40;;;2.70;99.90;;;;;;4930321;29;20240;-68
2023/01/17 16:50:01;;;;;;;0.90;0.90;;;2.70;99.90;;;;;;4930799;29;20206;-68
2023/01/17 16:52:27;;;;;;;1.15;1.15;;;2.70;99.90;;;;;;4923764;29;20270;-69
2023/01/17 16:54:54;;;;;;;1.20;1.20;;;2.60;99.90;;;;;;4918407;29;20564;-68
2023/01/17 16:57:21;;;;;;;2.05;2.00;;;2.60;99.90;;;;;;4920741;29;20214;-67
2023/01/17 16:59:49;;;;;;;3.25;3.15;;;2.60;99.90;;;;;;4921949;29;20267;-68
2023/01/17 17:02:17;;;;;;;3.40;3.10;;;2.60;99.90;;;;;;4927772;29;20226;-68
2023/01/17 17:04:45;;;;;;;4.80;4.50;;;2.60;99.90;;;;;;4923694;29;20247;-68
2023/01/17 17:07:12;;;;;;;5.10;3.80;;;2.60;99.90;;;;;;4924046;29;20226;-68
2023/01/17 17:09:38;;;;;;;3.63;3.33;;;2.60;99.90;;;;;;4929716;29;20210;-68
2023/01/17 17:12:06;;;;;;;2.63;2.42;;;2.60;99.90;;;;;;4928870;29;20237;-67
2023/01/17 17:14:33;;;;;;;3.35;3.08;;;2.50;99.90;;;;;;4934511;29;20221;-67
2023/01/17 17:16:59;;;;;;;0.40;0.40;;;2.50;99.90;;;;;;4927518;29;20230;-67
2023/01/17 17:19:26;;;;;;;3.25;1.67;;;2.40;99.90;;;;;;4915105;29;20218;-68
2023/01/17 17:21:57;;;;;;;0.80;0.80;;;2.40;99.90;;;;;;4922283;29;20231;-67
2023/01/17 17:24:24;;;;;;;0.60;0.60;;;2.40;99.90;;;;;;4926387;29;20568;-69
2023/01/17 17:26:51;;;;;;;1.23;1.23;;;2.40;99.90;;;;;;4924245;29;20207;-68
2023/01/17 17:29:18;;;;;;;1.55;1.40;;;2.40;99.90;;;;;;4929022;29;20206;-68
2023/01/17 17:31:45;;;;;;;0.88;0.88;;;2.40;99.90;;;;;;4918680;29;20245;-69
2023/01/17 17:34:13;;;;;;;0.73;0.73;;;2.30;99.90;;;;;;4915834;29;20203;-69
2023/01/17 17:36:40;;;;;;;1.20;1.13;;;2.30;99.90;;;;;;4915268;29;20282;-68
2023/01/17 17:39:13;;;;;;;1.35;1.35;;;2.30;99.90;;;;;;4910085;29;20210;-69
2023/01/17 17:41:41;;;;;;;1.83;1.73;;;2.30;99.90;;;;;;4922455;29;20226;-68
2023/01/17 17:44:08;;;;;;;2.05;0.80;;;2.30;99.90;;;;;;4914781;29;20691;-68
2023/01/17 17:46:35;;;;;;;0.80;0.80;;;2.20;99.90;;;;;;4921998;29;20207;-68
2023/01/17 17:49:03;;;;;;;0.60;0.60;;;2.20;99.90;;;;;;4911884;29;20309;-67
2023/01/17 17:51:31;;;;;;;0.40;0.40;;;2.10;99.90;;;;;;4923138;29;20233;-68
2023/01/17 17:54:00;;;;;;;0.45;0.45;;;2.20;99.90;;;;;;4915920;29;20220;-67
2023/01/17 17:56:29;;;;;;;0.57;0.57;;;2.20;99.90;;;;;;4926181;29;20217;-67
2023/01/17 17:58:56;;;;;;;1.83;1.73;;;2.10;99.90;;;;;;4913264;29;20210;-68
2023/01/17 18:01:23;;;;;;;0.60;0.45;;;2.10;99.90;;;;;;4912686;29;20243;-68
2023/01/17 18:03:50;;;;;;;0.85;0.85;;;2.10;99.90;;;;;;4912641;29;20241;-68
2023/01/17 18:06:17;;;;;;;0.30;0.30;;;2.10;99.90;;;;;;4915893;29;20266;-68
2023/01/17 18:08:45;;;;;;;1.13;1.13;;;2.20;99.90;;;;;;4920064;29;20588;-68
2023/01/17 18:11:13;;;;;;;2.38;2.25;;;2.20;99.90;;;;;;4922516;29;20238;-69
2023/01/17 18:13:42;;;;;;;2.25;2.15;;;2.20;99.90;;;;;;4914318;29;20529;-68
2023/01/17 18:16:11;;;;;;;1.58;1.58;;;2.10;99.90;;;;;;4908666;29;20261;-68
2023/01/17 18:21:08;;;;;;;5.55;4.90;;;2.10;99.90;;;;;;4908988;29;20612;-67
2023/01/17 18:23:37;;;;;;;2.10;1.88;;;2.10;99.90;;;;;;4911952;29;20242;-67
2023/01/17 18:26:04;;;;;;;1.90;1.80;;;2.10;99.90;;;;;;4912111;29;20222;-67